AirNav   Pilot Hours Calculator
 
 967 users online  

ND16 Frei Private Airport
Halliday, North Dakota, USA

GOING TO HALLIDAY?


FAA INFORMATION EFFECTIVE 03 NOVEMBER 2022

Location

FAA Identifier: ND16
Lat/Long: 47-26-30.0240N 102-14-31.6340W
47-26.500400N 102-14.527233W
47.4416733,-102.2421206
(estimated)
Elevation: 2100 ft. / 640 m (estimated)
Variation: 11E (1985)
From city: 7 miles SW of HALLIDAY, ND
Time zone: UTC -7 (UTC -6 during Daylight Saving Time)
Zip code: 58636

Airport Operations

Airport use: Private use. Permission required prior to landing
Activation date: 08/1988
Control tower: no
ARTCC: MINNEAPOLIS CENTER
FSS: GRAND FORKS FLIGHT SERVICE STATION
Attendance: UNATNDD
Wind indicator: yes
Segmented circle: no

Airport Services

Runway Information

Runway 1/19

Dimensions: 1700 x 60 ft. / 518 x 18 m
Surface: turf
RUNWAY 1  RUNWAY 19
Traffic pattern: leftleft
Obstructions: 5 ft. fence5 ft. fence

Airport Ownership and Management from official FAA records

Ownership: Privately-owned
Owner: LARRY FREI
7910 HWY 1806
HALLIDAY, ND 58636
Phone 701-938-4227
Manager: LARRY FREI
7910 HWY 1806
HALLIDAY, ND 58636
Phone 701-938-4227

Airport Operational Statistics

Aircraft based on the field: 1
Single engine airplanes: 1
    

Additional Remarks

FOR CD CTC MINNEAPOLIS ARTCC AT 651-463-5588.

Instrument Procedures

There are no published instrument procedures at ND16.

Some nearby airports with instrument procedures:

9Y1 - Dunn County Airport - Weydahl Field (22 nm W)
KHZE - Mercer County Regional Airport (28 nm E)
05D - New Town Municipal Airport (33 nm N)
D05 - Garrison Municipal Airport (35 nm E)
D57 - Glen Ullin Regional Airport (41 nm S)
 
Loc | Ops | Rwys | IFR | FBO | Links
Com | Nav | Svcs | Stats | Notes

Bismarck Aero Center
AirBoss

 
Area around ND16 (Frei Private Airport)
 
Road maps at: MapQuest Bing Google
 
Aerial photo
No photo
 
Sectional chart

 
Airport distance calculator
Flying to Frei Private Airport? Find the distance to fly.

From to ND16

Sunrise and sunset
Times for 26-Nov-2022
 Local
(UTC-7)
 Zulu
(UTC)
Morning civil twilight06:3613:36
Sunrise07:1014:10
Sunset16:0223:02
Evening civil twilight16:3723:37

Current date and time
Zulu (UTC)  26-Nov-2022 15:51:11
Local (UTC-7)  26-Nov-2022 08:51:11
 
METAR
KHZE 
28nm E 
261535Z AUTO 32016KT 10SM OVC100 02/00 A2988 RMK AO2
KN60 
35nm E 
261452Z AUTO 31014KT 02/M01 A2983 RMK AO1 SLP118 T00171011 53029
KD57 
41nm S 
261535Z AUTO 31011KT 10SM FEW095 02/M02 A2986 RMK AO2
KDIK 
45nm SW 
261456Z AUTO 32009KT 10SM BKN090 01/M01 A2985 RMK AO2 SLP126 T00111011 51032
KS25 
46nm NW 
261535Z AUTO 32007G12KT 10SM CLR 01/00 A2995 RMK AO2
TAF
KDIK 
45nm SW 
261125Z 2612/2712 VRB06KT P6SM BKN200 FM261500 31012KT P6SM BKN150 FM261800 32013G21KT P6SM BKN200 FM262300 30010KT P6SM BKN250 FM270300 VRB06KT P6SM FEW250
NOTAMs
Click for the latest NOTAMs
NOTAMs are issued by the DoD/FAA and will open in a separate window not controlled by AirNav.

 

 
 

Would you like to see your business listed on this page?

 If your business provides an interesting product or service to pilots, flight crews, aircraft, or users of the Frei Private Airport, you should consider listing it here.  To start the listing process, click on the button below
 
Add a business
 

Other Pages about Frei Private Airport

Update a link
 
Copyright © AirNav, LLC. All rights reserved. Privacy Policy  Contact